sensor_id;sensor_type;location;lat;lon;timestamp;temperature;humidity
19254;DHT22;9761;50.926;5.330;2023-02-01T00:00:17;5.90;99.90
19254;DHT22;9761;50.926;5.330;2023-02-01T00:02:45;5.90;99.90
19254;DHT22;9761;50.926;5.330;2023-02-01T00:05:13;6.00;99.90
19254;DHT22;9761;50.926;5.330;2023-02-01T00:07:41;6.00;99.90
19254;DHT22;9761;50.926;5.330;2023-02-01T00:10:12;5.90;99.90
19254;DHT22;9761;50.926;5.330;2023-02-01T00:12:40;6.00;99.90
19254;DHT22;9761;50.926;5.330;2023-02-01T00:15:08;6.00;99.90
19254;DHT22;9761;50.926;5.330;2023-02-01T00:17:35;6.00;99.90
19254;DHT22;9761;50.926;5.330;2023-02-01T00:20:02;6.00;99.90
19254;DHT22;9761;50.926;5.330;2023-02-01T00:22:29;6.00;99.90
19254;DHT22;9761;50.926;5.330;2023-02-01T00:24:58;6.00;99.90
19254;DHT22;9761;50.926;5.330;2023-02-01T00:27:25;6.00;99.90
19254;DHT22;9761;50.926;5.330;2023-02-01T00:29:54;6.00;99.90
19254;DHT22;9761;50.926;5.330;2023-02-01T00:32:21;6.00;99.90
19254;DHT22;9761;50.926;5.330;2023-02-01T00:34:48;6.00;99.90
19254;DHT22;9761;50.926;5.330;2023-02-01T00:37:15;6.00;99.90
19254;DHT22;9761;50.926;5.330;2023-02-01T00:42:42;6.10;99.90
19254;DHT22;9761;50.926;5.330;2023-02-01T00:45:10;6.10;99.90
19254;DHT22;9761;50.926;5.330;2023-02-01T00:47:37;6.10;99.90
19254;DHT22;9761;50.926;5.330;2023-02-01T00:50:05;6.10;99.90
19254;DHT22;9761;50.926;5.330;2023-02-01T00:52:32;6.10;99.90
19254;DHT22;9761;50.926;5.330;2023-02-01T00:54:59;6.20;99.90
19254;DHT22;9761;50.926;5.330;2023-02-01T00:57:26;6.20;99.90
19254;DHT22;9761;50.926;5.330;2023-02-01T00:59:54;6.30;99.90
19254;DHT22;9761;50.926;5.330;2023-02-01T01:02:21;6.30;99.90
19254;DHT22;9761;50.926;5.330;2023-02-01T01:04:48;6.30;99.90
19254;DHT22;9761;50.926;5.330;2023-02-01T01:07:15;6.30;99.90
19254;DHT22;9761;50.926;5.330;2023-02-01T01:09:42;6.30;99.90
19254;DHT22;9761;50.926;5.330;2023-02-01T01:12:09;6.30;99.90
19254;DHT22;9761;50.926;5.330;2023-02-01T01:14:37;6.20;99.90
19254;DHT22;9761;50.926;5.330;2023-02-01T01:17:05;6.30;99.90
19254;DHT22;9761;50.926;5.330;2023-02-01T01:19:32;6.30;99.90
19254;DHT22;9761;50.926;5.330;2023-02-01T01:22:00;6.30;99.90
19254;DHT22;9761;50.926;5.330;2023-02-01T01:27:12;6.30;99.90
19254;DHT22;9761;50.926;5.330;2023-02-01T01:29:39;6.20;99.90
19254;DHT22;9761;50.926;5.330;2023-02-01T01:32:08;6.30;99.90
19254;DHT22;9761;50.926;5.330;2023-02-01T01:34:35;6.30;99.90
19254;DHT22;9761;50.926;5.330;2023-02-01T01:37:01;6.30;99.90
19254;DHT22;9761;50.926;5.330;2023-02-01T01:45:44;6.40;99.90
19254;DHT22;9761;50.926;5.330;2023-02-01T01:48:16;6.40;99.90
19254;DHT22;9761;50.926;5.330;2023-02-01T01:50:49;6.30;99.90
19254;DHT22;9761;50.926;5.330;2023-02-01T01:53:19;6.30;99.90
19254;DHT22;9761;50.926;5.330;2023-02-01T01:55:47;6.20;99.90
19254;DHT22;9761;50.926;5.330;2023-02-01T01:58:18;6.20;99.90
19254;DHT22;9761;50.926;5.330;2023-02-01T02:00:46;6.20;99.90
19254;DHT22;9761;50.926;5.330;2023-02-01T02:03:18;6.20;99.90
19254;DHT22;9761;50.926;5.330;2023-02-01T02:05:47;6.30;99.90
19254;DHT22;9761;50.926;5.330;2023-02-01T02:08:15;6.30;99.90
19254;DHT22;9761;50.926;5.330;2023-02-01T02:10:43;6.30;99.90
19254;DHT22;9761;50.926;5.330;2023-02-01T02:16:12;6.30;99.90
19254;DHT22;9761;50.926;5.330;2023-02-01T02:18:52;6.40;99.90
19254;DHT22;9761;50.926;5.330;2023-02-01T02:21:41;6.40;99.90
19254;DHT22;9761;50.926;5.330;2023-02-01T02:24:27;6.40;99.90
19254;DHT22;9761;50.926;5.330;2023-02-01T02:27:12;6.50;99.90
19254;DHT22;9761;50.926;5.330;2023-02-01T02:30:22;6.40;99.90
19254;DHT22;9761;50.926;5.330;2023-02-01T02:36:18;6.50;99.90
19254;DHT22;9761;50.926;5.330;2023-02-01T02:41:28;6.50;99.90
19254;DHT22;9761;50.926;5.330;2023-02-01T02:44:21;6.50;99.90
19254;DHT22;9761;50.926;5.330;2023-02-01T02:47:13;6.50;99.90
19254;DHT22;9761;50.926;5.330;2023-02-01T02:49:57;6.50;99.90
19254;DHT22;9761;50.926;5.330;2023-02-01T02:52:46;6.50;99.90
19254;DHT22;9761;50.926;5.330;2023-02-01T02:55:35;6.50;99.90
19254;DHT22;9761;50.926;5.330;2023-02-01T02:58:05;6.50;99.90
19254;DHT22;9761;50.926;5.330;2023-02-01T03:00:51;6.50;99.90
19254;DHT22;9761;50.926;5.330;2023-02-01T03:03:38;6.50;99.90
19254;DHT22;9761;50.926;5.330;2023-02-01T03:06:24;6.50;99.90
19254;DHT22;9761;50.926;5.330;2023-02-01T03:08:54;6.50;99.90
19254;DHT22;9761;50.926;5.330;2023-02-01T03:11:23;6.50;99.90
19254;DHT22;9761;50.926;5.330;2023-02-01T03:14:14;6.40;99.90
19254;DHT22;9761;50.926;5.330;2023-02-01T03:16:45;6.30;99.90
19254;DHT22;9761;50.926;5.330;2023-02-01T03:19:15;6.30;99.90
19254;DHT22;9761;50.926;5.330;2023-02-01T03:21:48;6.30;99.90
19254;DHT22;9761;50.926;5.330;2023-02-01T03:24:18;6.30;99.90
19254;DHT22;9761;50.926;5.330;2023-02-01T03:26:50;6.20;99.90
19254;DHT22;9761;50.926;5.330;2023-02-01T03:29:21;6.20;99.90
19254;DHT22;9761;50.926;5.330;2023-02-01T03:31:50;6.10;99.90
19254;DHT22;9761;50.926;5.330;2023-02-01T03:34:18;6.10;99.90
19254;DHT22;9761;50.926;5.330;2023-02-01T03:36:49;6.10;99.90
19254;DHT22;9761;50.926;5.330;2023-02-01T03:39:21;6.10;99.90
19254;DHT22;9761;50.926;5.330;2023-02-01T03:41:52;6.10;99.90
19254;DHT22;9761;50.926;5.330;2023-02-01T03:44:47;6.00;99.90
19254;DHT22;9761;50.926;5.330;2023-02-01T03:47:18;6.00;99.90
19254;DHT22;9761;50.926;5.330;2023-02-01T03:49:49;5.90;99.90
19254;DHT22;9761;50.926;5.330;2023-02-01T03:52:22;5.90;99.90
19254;DHT22;9761;50.926;5.330;2023-02-01T03:54:50;5.90;99.90
19254;DHT22;9761;50.926;5.330;2023-02-01T03:57:23;5.90;99.90
19254;DHT22;9761;50.926;5.330;2023-02-01T03:59:51;5.80;99.90
19254;DHT22;9761;50.926;5.330;2023-02-01T04:02:18;5.80;99.90
19254;DHT22;9761;50.926;5.330;2023-02-01T04:04:45;5.80;99.90
19254;DHT22;9761;50.926;5.330;2023-02-01T04:07:12;5.80;99.90
19254;DHT22;9761;50.926;5.330;2023-02-01T04:09:40;5.80;99.90
19254;DHT22;9761;50.926;5.330;2023-02-01T04:12:07;5.80;99.90
19254;DHT22;9761;50.926;5.330;2023-02-01T04:14:34;5.80;99.90
19254;DHT22;9761;50.926;5.330;2023-02-01T04:17:01;5.80;99.90
19254;DHT22;9761;50.926;5.330;2023-02-01T04:19:28;5.80;99.90
19254;DHT22;9761;50.926;5.330;2023-02-01T04:21:55;5.70;99.90
19254;DHT22;9761;50.926;5.330;2023-02-01T04:24:22;5.70;99.90
19254;DHT22;9761;50.926;5.330;2023-02-01T04:26:51;5.70;99.90
19254;DHT22;9761;50.926;5.330;2023-02-01T04:29:18;5.70;99.90
19254;DHT22;9761;50.926;5.330;2023-02-01T04:31:45;5.70;99.90
19254;DHT22;9761;50.926;5.330;2023-02-01T04:34:13;5.70;99.90
19254;DHT22;9761;50.926;5.330;2023-02-01T04:36:40;5.70;99.90
19254;DHT22;9761;50.926;5.330;2023-02-01T04:39:08;5.60;99.90
19254;DHT22;9761;50.926;5.330;2023-02-01T04:41:35;5.60;99.90
19254;DHT22;9761;50.926;5.330;2023-02-01T04:44:04;5.60;99.90
19254;DHT22;9761;50.926;5.330;2023-02-01T04:46:31;5.60;99.90
19254;DHT22;9761;50.926;5.330;2023-02-01T04:48:58;5.60;99.90
19254;DHT22;9761;50.926;5.330;2023-02-01T04:51:25;5.60;99.90
19254;DHT22;9761;50.926;5.330;2023-02-01T04:53:52;5.60;99.90
19254;DHT22;9761;50.926;5.330;2023-02-01T04:56:21;5.60;99.90
19254;DHT22;9761;50.926;5.330;2023-02-01T04:58:48;5.60;99.90
19254;DHT22;9761;50.926;5.330;2023-02-01T05:01:17;5.60;99.90
19254;DHT22;9761;50.926;5.330;2023-02-01T05:03:44;5.70;99.90
19254;DHT22;9761;50.926;5.330;2023-02-01T05:06:11;5.70;99.90
19254;DHT22;9761;50.926;5.330;2023-02-01T05:09:03;5.80;99.90
19254;DHT22;9761;50.926;5.330;2023-02-01T05:11:30;5.90;99.90
19254;DHT22;9761;50.926;5.330;2023-02-01T05:14:14;5.80;99.90
19254;DHT22;9761;50.926;5.330;2023-02-01T05:16:45;5.80;99.90
19254;DHT22;9761;50.926;5.330;2023-02-01T05:19:12;5.80;99.90
19254;DHT22;9761;50.926;5.330;2023-02-01T05:21:39;5.70;99.90
19254;DHT22;9761;50.926;5.330;2023-02-01T05:24:08;5.70;99.90
19254;DHT22;9761;50.926;5.330;2023-02-01T05:26:39;5.70;99.90
19254;DHT22;9761;50.926;5.330;2023-02-01T05:29:07;5.60;99.90
19254;DHT22;9761;50.926;5.330;2023-02-01T05:31:35;5.60;99.90
19254;DHT22;9761;50.926;5.330;2023-02-01T05:34:04;5.60;99.90
19254;DHT22;9761;50.926;5.330;2023-02-01T05:36:31;5.50;99.90
19254;DHT22;9761;50.926;5.330;2023-02-01T05:38:58;5.50;99.90
19254;DHT22;9761;50.926;5.330;2023-02-01T05:41:26;5.50;99.90
19254;DHT22;9761;50.926;5.330;2023-02-01T05:43:54;5.40;99.90
19254;DHT22;9761;50.926;5.330;2023-02-01T05:46:21;5.40;99.90
19254;DHT22;9761;50.926;5.330;2023-02-01T05:48:48;5.30;99.90
19254;DHT22;9761;50.926;5.330;2023-02-01T05:51:17;5.20;99.90
19254;DHT22;9761;50.926;5.330;2023-02-01T05:53:44;5.20;99.90
19254;DHT22;9761;50.926;5.330;2023-02-01T05:56:13;5.20;99.90
19254;DHT22;9761;50.926;5.330;2023-02-01T05:58:40;5.20;99.90
19254;DHT22;9761;50.926;5.330;2023-02-01T06:01:07;5.20;99.90
19254;DHT22;9761;50.926;5.330;2023-02-01T06:03:34;5.10;99.90
19254;DHT22;9761;50.926;5.330;2023-02-01T06:08:55;5.10;99.90
19254;DHT22;9761;50.926;5.330;2023-02-01T06:11:23;5.00;99.90
19254;DHT22;9761;50.926;5.330;2023-02-01T06:13:50;5.00;99.90
19254;DHT22;9761;50.926;5.330;2023-02-01T06:16:18;5.00;99.90
19254;DHT22;9761;50.926;5.330;2023-02-01T06:19:04;5.00;99.90
19254;DHT22;9761;50.926;5.330;2023-02-01T06:21:32;4.90;99.90
19254;DHT22;9761;50.926;5.330;2023-02-01T06:24:01;5.00;99.90
19254;DHT22;9761;50.926;5.330;2023-02-01T06:26:29;4.90;99.90
19254;DHT22;9761;50.926;5.330;2023-02-01T06:28:57;4.90;99.90
19254;DHT22;9761;50.926;5.330;2023-02-01T06:31:25;4.90;99.90
19254;DHT22;9761;50.926;5.330;2023-02-01T06:33:53;4.90;99.90
19254;DHT22;9761;50.926;5.330;2023-02-01T06:36:21;4.90;99.90
19254;DHT22;9761;50.926;5.330;2023-02-01T06:38:48;4.80;99.90
19254;DHT22;9761;50.926;5.330;2023-02-01T06:41:17;4.80;99.90
19254;DHT22;9761;50.926;5.330;2023-02-01T06:43:46;4.80;99.90
19254;DHT22;9761;50.926;5.330;2023-02-01T06:46:13;4.80;99.90
19254;DHT22;9761;50.926;5.330;2023-02-01T06:48:40;4.80;99.90
19254;DHT22;9761;50.926;5.330;2023-02-01T06:51:19;4.80;99.90
19254;DHT22;9761;50.926;5.330;2023-02-01T06:53:48;4.80;99.90
19254;DHT22;9761;50.926;5.330;2023-02-01T06:56:18;4.80;99.90
19254;DHT22;9761;50.926;5.330;2023-02-01T06:58:45;4.80;99.90
19254;DHT22;9761;50.926;5.330;2023-02-01T07:01:15;4.80;99.90
19254;DHT22;9761;50.926;5.330;2023-02-01T07:03:50;4.80;99.90
19254;DHT22;9761;50.926;5.330;2023-02-01T07:06:20;4.70;99.90
19254;DHT22;9761;50.926;5.330;2023-02-01T07:08:47;4.70;99.90
19254;DHT22;9761;50.926;5.330;2023-02-01T07:11:16;4.70;99.90
19254;DHT22;9761;50.926;5.330;2023-02-01T07:13:45;4.70;99.90
19254;DHT22;9761;50.926;5.330;2023-02-01T07:16:14;4.70;99.90
19254;DHT22;9761;50.926;5.330;2023-02-01T07:18:42;4.60;99.90
19254;DHT22;9761;50.926;5.330;2023-02-01T07:21:09;4.60;99.90
19254;DHT22;9761;50.926;5.330;2023-02-01T07:23:37;4.60;99.90
19254;DHT22;9761;50.926;5.330;2023-02-01T07:26:06;4.70;99.90
19254;DHT22;9761;50.926;5.330;2023-02-01T07:28:35;4.70;99.90
19254;DHT22;9761;50.926;5.330;2023-02-01T07:31:08;4.70;99.90
19254;DHT22;9761;50.926;5.330;2023-02-01T07:33:37;4.70;99.90
19254;DHT22;9761;50.926;5.330;2023-02-01T07:36:08;4.70;99.90
19254;DHT22;9761;50.926;5.330;2023-02-01T07:38:38;4.60;99.90
19254;DHT22;9761;50.926;5.330;2023-02-01T07:41:06;4.70;99.90
19254;DHT22;9761;50.926;5.330;2023-02-01T07:43:33;4.70;99.90
19254;DHT22;9761;50.926;5.330;2023-02-01T07:46:02;4.70;99.90
19254;DHT22;9761;50.926;5.330;2023-02-01T07:48:32;4.70;99.90
19254;DHT22;9761;50.926;5.330;2023-02-01T07:51:00;4.70;99.90
19254;DHT22;9761;50.926;5.330;2023-02-01T07:53:30;4.70;99.90
19254;DHT22;9761;50.926;5.330;2023-02-01T07:55:58;4.70;99.90
19254;DHT22;9761;50.926;5.330;2023-02-01T07:58:27;4.70;99.90
19254;DHT22;9761;50.926;5.330;2023-02-01T08:00:56;4.70;99.90
19254;DHT22;9761;50.926;5.330;2023-02-01T08:03:42;4.60;99.90
19254;DHT22;9761;50.926;5.330;2023-02-01T08:06:10;4.60;99.90
19254;DHT22;9761;50.926;5.330;2023-02-01T08:08:37;4.60;99.90
19254;DHT22;9761;50.926;5.330;2023-02-01T08:11:06;4.60;99.90
19254;DHT22;9761;50.926;5.330;2023-02-01T08:13:34;4.60;99.90
19254;DHT22;9761;50.926;5.330;2023-02-01T08:16:04;4.60;99.90
19254;DHT22;9761;50.926;5.330;2023-02-01T08:18:32;4.60;99.90
19254;DHT22;9761;50.926;5.330;2023-02-01T08:21:05;4.70;99.90
19254;DHT22;9761;50.926;5.330;2023-02-01T08:23:32;4.70;99.90
19254;DHT22;9761;50.926;5.330;2023-02-01T08:26:10;4.70;99.90
19254;DHT22;9761;50.926;5.330;2023-02-01T08:28:39;4.70;99.90
19254;DHT22;9761;50.926;5.330;2023-02-01T08:31:08;4.90;99.90
19254;DHT22;9761;50.926;5.330;2023-02-01T08:33:36;5.00;99.90
19254;DHT22;9761;50.926;5.330;2023-02-01T08:36:06;5.10;99.90
19254;DHT22;9761;50.926;5.330;2023-02-01T08:38:35;5.20;99.90
19254;DHT22;9761;50.926;5.330;2023-02-01T08:41:06;5.30;99.90
19254;DHT22;9761;50.926;5.330;2023-02-01T08:43:33;5.40;99.90
19254;DHT22;9761;50.926;5.330;2023-02-01T08:46:02;5.40;99.90
19254;DHT22;9761;50.926;5.330;2023-02-01T08:48:29;5.40;99.90
19254;DHT22;9761;50.926;5.330;2023-02-01T08:50:56;5.50;99.90
19254;DHT22;9761;50.926;5.330;2023-02-01T08:53:24;5.50;99.90
19254;DHT22;9761;50.926;5.330;2023-02-01T08:55:51;5.50;99.90
19254;DHT22;9761;50.926;5.330;2023-02-01T08:58:18;5.50;99.90
19254;DHT22;9761;50.926;5.330;2023-02-01T09:00:47;5.50;99.90
19254;DHT22;9761;50.926;5.330;2023-02-01T09:03:17;5.50;99.90
19254;DHT22;9761;50.926;5.330;2023-02-01T09:05:45;5.50;99.90
19254;DHT22;9761;50.926;5.330;2023-02-01T09:08:14;5.50;99.90
19254;DHT22;9761;50.926;5.330;2023-02-01T09:10:44;5.60;99.90
19254;DHT22;9761;50.926;5.330;2023-02-01T09:13:13;5.60;99.90
19254;DHT22;9761;50.926;5.330;2023-02-01T09:15:41;5.70;99.90
19254;DHT22;9761;50.926;5.330;2023-02-01T09:18:10;5.70;99.90
19254;DHT22;9761;50.926;5.330;2023-02-01T09:20:40;5.70;99.90
19254;DHT22;9761;50.926;5.330;2023-02-01T09:23:09;5.70;99.90
19254;DHT22;9761;50.926;5.330;2023-02-01T09:25:37;5.70;99.90
19254;DHT22;9761;50.926;5.330;2023-02-01T09:28:06;5.80;99.90
19254;DHT22;9761;50.926;5.330;2023-02-01T09:30:37;5.80;99.90
19254;DHT22;9761;50.926;5.330;2023-02-01T09:33:05;5.80;99.90
19254;DHT22;9761;50.926;5.330;2023-02-01T09:35:32;5.80;99.90
19254;DHT22;9761;50.926;5.330;2023-02-01T09:37:59;5.90;99.90
19254;DHT22;9761;50.926;5.330;2023-02-01T09:40:26;6.00;99.90
19254;DHT22;9761;50.926;5.330;2023-02-01T09:45:55;5.90;99.90
19254;DHT22;9761;50.926;5.330;2023-02-01T09:48:31;6.00;99.90
19254;DHT22;9761;50.926;5.330;2023-02-01T09:51:04;6.00;99.90
19254;DHT22;9761;50.926;5.330;2023-02-01T09:53:37;6.10;99.90
19254;DHT22;9761;50.926;5.330;2023-02-01T09:56:12;6.10;99.90
19254;DHT22;9761;50.926;5.330;2023-02-01T09:58:44;6.10;99.90
19254;DHT22;9761;50.926;5.330;2023-02-01T10:01:19;6.20;99.90
19254;DHT22;9761;50.926;5.330;2023-02-01T10:03:47;6.30;99.90
19254;DHT22;9761;50.926;5.330;2023-02-01T10:06:30;6.30;99.90
19254;DHT22;9761;50.926;5.330;2023-02-01T10:09:14;6.40;99.90
19254;DHT22;9761;50.926;5.330;2023-02-01T10:11:53;6.50;99.90
19254;DHT22;9761;50.926;5.330;2023-02-01T10:14:46;6.60;99.90
19254;DHT22;9761;50.926;5.330;2023-02-01T10:17:30;6.60;99.90
19254;DHT22;9761;50.926;5.330;2023-02-01T10:20:06;6.60;99.90
19254;DHT22;9761;50.926;5.330;2023-02-01T10:22:41;6.60;99.90
19254;DHT22;9761;50.926;5.330;2023-02-01T10:25:17;6.80;99.90
19254;DHT22;9761;50.926;5.330;2023-02-01T10:27:50;6.70;99.90
19254;DHT22;9761;50.926;5.330;2023-02-01T10:30:20;6.80;99.90
19254;DHT22;9761;50.926;5.330;2023-02-01T10:32:54;6.80;99.90
19254;DHT22;9761;50.926;5.330;2023-02-01T10:35:26;6.90;99.90
19254;DHT22;9761;50.926;5.330;2023-02-01T10:37:54;7.00;99.90
19254;DHT22;9761;50.926;5.330;2023-02-01T10:40:24;7.10;99.90
19254;DHT22;9761;50.926;5.330;2023-02-01T10:42:54;7.10;99.90
19254;DHT22;9761;50.926;5.330;2023-02-01T10:45:25;7.10;99.90
19254;DHT22;9761;50.926;5.330;2023-02-01T10:47:56;7.20;99.90
19254;DHT22;9761;50.926;5.330;2023-02-01T10:50:33;7.30;99.90
19254;DHT22;9761;50.926;5.330;2023-02-01T10:53:05;7.30;99.90
19254;DHT22;9761;50.926;5.330;2023-02-01T10:55:39;7.40;99.90
19254;DHT22;9761;50.926;5.330;2023-02-01T10:58:17;7.50;99.90
19254;DHT22;9761;50.926;5.330;2023-02-01T11:00:48;7.70;99.90
19254;DHT22;9761;50.926;5.330;2023-02-01T11:03:34;7.70;99.90
19254;DHT22;9761;50.926;5.330;2023-02-01T11:06:11;7.60;99.90
19254;DHT22;9761;50.926;5.330;2023-02-01T11:08:46;7.70;99.90
19254;DHT22;9761;50.926;5.330;2023-02-01T11:11:15;7.80;99.90
19254;DHT22;9761;50.926;5.330;2023-02-01T11:13:42;8.00;99.90
19254;DHT22;9761;50.926;5.330;2023-02-01T11:16:13;8.20;99.90
19254;DHT22;9761;50.926;5.330;2023-02-01T11:18:42;8.10;99.90
19254;DHT22;9761;50.926;5.330;2023-02-01T11:21:10;8.20;99.90
19254;DHT22;9761;50.926;5.330;2023-02-01T11:23:42;8.20;99.90
19254;DHT22;9761;50.926;5.330;2023-02-01T11:26:13;8.30;99.90
19254;DHT22;9761;50.926;5.330;2023-02-01T11:28:46;8.40;99.90
19254;DHT22;9761;50.926;5.330;2023-02-01T11:31:15;8.50;99.90
19254;DHT22;9761;50.926;5.330;2023-02-01T11:33:49;8.60;99.90
19254;DHT22;9761;50.926;5.330;2023-02-01T11:36:20;8.60;99.90
19254;DHT22;9761;50.926;5.330;2023-02-01T11:38:54;8.60;99.90
19254;DHT22;9761;50.926;5.330;2023-02-01T11:41:24;8.50;99.90
19254;DHT22;9761;50.926;5.330;2023-02-01T11:43:54;8.50;99.90
19254;DHT22;9761;50.926;5.330;2023-02-01T11:46:24;8.70;99.90
19254;DHT22;9761;50.926;5.330;2023-02-01T11:48:56;8.70;99.90
19254;DHT22;9761;50.926;5.330;2023-02-01T11:51:42;8.70;99.90
19254;DHT22;9761;50.926;5.330;2023-02-01T11:54:31;8.80;99.90
19254;DHT22;9761;50.926;5.330;2023-02-01T11:57:12;8.90;99.90
19254;DHT22;9761;50.926;5.330;2023-02-01T11:59:56;9.10;99.90
19254;DHT22;9761;50.926;5.330;2023-02-01T12:02:56;9.00;99.90
19254;DHT22;9761;50.926;5.330;2023-02-01T12:05:34;8.80;99.90
19254;DHT22;9761;50.926;5.330;2023-02-01T12:08:22;8.80;99.90
19254;DHT22;9761;50.926;5.330;2023-02-01T12:11:07;8.80;99.90
19254;DHT22;9761;50.926;5.330;2023-02-01T12:13:48;8.80;99.90
19254;DHT22;9761;50.926;5.330;2023-02-01T12:16:27;8.70;99.90
19254;DHT22;9761;50.926;5.330;2023-02-01T12:19:15;8.70;99.90
19254;DHT22;9761;50.926;5.330;2023-02-01T12:21:54;8.70;99.90
19254;DHT22;9761;50.926;5.330;2023-02-01T12:24:40;8.60;99.90
19254;DHT22;9761;50.926;5.330;2023-02-01T12:27:27;8.60;99.90
19254;DHT22;9761;50.926;5.330;2023-02-01T12:33:01;8.70;99.90
19254;DHT22;9761;50.926;5.330;2023-02-01T12:35:50;8.80;99.90
19254;DHT22;9761;50.926;5.330;2023-02-01T12:38:39;8.70;99.90
19254;DHT22;9761;50.926;5.330;2023-02-01T12:41:20;8.60;99.90
19254;DHT22;9761;50.926;5.330;2023-02-01T12:43:54;8.60;99.90
19254;DHT22;9761;50.926;5.330;2023-02-01T12:46:26;8.60;99.90
19254;DHT22;9761;50.926;5.330;2023-02-01T12:48:58;8.60;99.90
19254;DHT22;9761;50.926;5.330;2023-02-01T12:51:31;8.60;99.90
19254;DHT22;9761;50.926;5.330;2023-02-01T12:54:06;8.60;99.90
19254;DHT22;9761;50.926;5.330;2023-02-01T12:56:40;8.50;99.90
19254;DHT22;9761;50.926;5.330;2023-02-01T12:59:16;8.60;99.90
19254;DHT22;9761;50.926;5.330;2023-02-01T13:01:52;8.60;99.90
19254;DHT22;9761;50.926;5.330;2023-02-01T13:04:49;8.60;99.90
19254;DHT22;9761;50.926;5.330;2023-02-01T13:07:22;8.60;99.90
19254;DHT22;9761;50.926;5.330;2023-02-01T13:09:59;8.60;99.90
19254;DHT22;9761;50.926;5.330;2023-02-01T13:12:32;8.70;99.90
19254;DHT22;9761;50.926;5.330;2023-02-01T13:15:10;8.60;99.90
19254;DHT22;9761;50.926;5.330;2023-02-01T13:17:42;8.70;99.90
19254;DHT22;9761;50.926;5.330;2023-02-01T13:20:19;8.60;99.90
19254;DHT22;9761;50.926;5.330;2023-02-01T13:22:51;8.60;99.90
19254;DHT22;9761;50.926;5.330;2023-02-01T13:25:29;8.70;99.90
19254;DHT22;9761;50.926;5.330;2023-02-01T13:28:01;8.70;99.90
19254;DHT22;9761;50.926;5.330;2023-02-01T13:30:38;8.60;99.90
19254;DHT22;9761;50.926;5.330;2023-02-01T13:33:34;8.60;99.90
19254;DHT22;9761;50.926;5.330;2023-02-01T13:36:32;8.70;99.90
19254;DHT22;9761;50.926;5.330;2023-02-01T13:42:14;8.70;99.90
19254;DHT22;9761;50.926;5.330;2023-02-01T13:44:45;8.80;99.90
19254;DHT22;9761;50.926;5.330;2023-02-01T13:47:24;8.80;99.90
19254;DHT22;9761;50.926;5.330;2023-02-01T13:49:55;8.70;99.90
19254;DHT22;9761;50.926;5.330;2023-02-01T13:52:36;8.70;99.90
19254;DHT22;9761;50.926;5.330;2023-02-01T13:55:28;8.80;99.90
19254;DHT22;9761;50.926;5.330;2023-02-01T13:58:05;8.80;99.90
19254;DHT22;9761;50.926;5.330;2023-02-01T14:00:36;8.80;99.90
19254;DHT22;9761;50.926;5.330;2023-02-01T14:03:12;8.80;99.90
19254;DHT22;9761;50.926;5.330;2023-02-01T14:06:00;8.90;99.90
19254;DHT22;9761;50.926;5.330;2023-02-01T14:08:43;8.90;99.90
19254;DHT22;9761;50.926;5.330;2023-02-01T14:11:36;8.90;99.90
19254;DHT22;9761;50.926;5.330;2023-02-01T14:17:35;8.80;99.90
19254;DHT22;9761;50.926;5.330;2023-02-01T14:23:22;8.90;99.90
19254;DHT22;9761;50.926;5.330;2023-02-01T14:26:10;8.90;99.90
19254;DHT22;9761;50.926;5.330;2023-02-01T14:28:42;8.90;99.90
19254;DHT22;9761;50.926;5.330;2023-02-01T14:31:17;9.00;99.90
19254;DHT22;9761;50.926;5.330;2023-02-01T14:33:46;8.90;99.90
19254;DHT22;9761;50.926;5.330;2023-02-01T14:36:15;8.90;99.90
19254;DHT22;9761;50.926;5.330;2023-02-01T14:38:49;9.00;99.90
19254;DHT22;9761;50.926;5.330;2023-02-01T14:41:30;9.20;99.90
19254;DHT22;9761;50.926;5.330;2023-02-01T14:44:27;9.00;99.90
19254;DHT22;9761;50.926;5.330;2023-02-01T14:50:07;9.20;99.90
19254;DHT22;9761;50.926;5.330;2023-02-01T14:52:39;9.10;99.90
19254;DHT22;9761;50.926;5.330;2023-02-01T14:55:13;9.10;99.90
19254;DHT22;9761;50.926;5.330;2023-02-01T14:57:44;9.10;99.90
19254;DHT22;9761;50.926;5.330;2023-02-01T15:00:21;9.10;99.90
19254;DHT22;9761;50.926;5.330;2023-02-01T15:02:50;9.00;99.90
19254;DHT22;9761;50.926;5.330;2023-02-01T15:05:37;9.00;99.90
19254;DHT22;9761;50.926;5.330;2023-02-01T15:08:11;9.00;99.90
19254;DHT22;9761;50.926;5.330;2023-02-01T15:10:43;9.00;99.90
19254;DHT22;9761;50.926;5.330;2023-02-01T15:13:23;9.00;99.90
19254;DHT22;9761;50.926;5.330;2023-02-01T15:16:03;8.90;99.90
19254;DHT22;9761;50.926;5.330;2023-02-01T15:18:32;9.00;99.90
19254;DHT22;9761;50.926;5.330;2023-02-01T15:21:04;9.00;99.90
19254;DHT22;9761;50.926;5.330;2023-02-01T15:23:33;8.90;99.90
19254;DHT22;9761;50.926;5.330;2023-02-01T15:26:02;8.90;99.90
19254;DHT22;9761;50.926;5.330;2023-02-01T15:28:34;8.90;99.90
19254;DHT22;9761;50.926;5.330;2023-02-01T15:31:04;8.90;99.90
19254;DHT22;9761;50.926;5.330;2023-02-01T15:33:35;8.90;99.90
19254;DHT22;9761;50.926;5.330;2023-02-01T15:36:16;8.80;99.90
19254;DHT22;9761;50.926;5.330;2023-02-01T15:38:44;8.80;99.90
19254;DHT22;9761;50.926;5.330;2023-02-01T15:41:14;8.80;99.90
19254;DHT22;9761;50.926;5.330;2023-02-01T15:43:45;8.80;99.90
19254;DHT22;9761;50.926;5.330;2023-02-01T15:46:21;8.80;99.90
19254;DHT22;9761;50.926;5.330;2023-02-01T15:48:49;8.80;99.90
19254;DHT22;9761;50.926;5.330;2023-02-01T15:51:22;8.80;99.90
19254;DHT22;9761;50.926;5.330;2023-02-01T15:53:54;8.80;99.90
19254;DHT22;9761;50.926;5.330;2023-02-01T15:56:24;8.70;99.90
19254;DHT22;9761;50.926;5.330;2023-02-01T15:58:56;8.80;99.90
19254;DHT22;9761;50.926;5.330;2023-02-01T16:01:25;8.70;99.90
19254;DHT22;9761;50.926;5.330;2023-02-01T16:04:04;8.70;99.90
19254;DHT22;9761;50.926;5.330;2023-02-01T16:06:46;8.70;99.90
19254;DHT22;9761;50.926;5.330;2023-02-01T16:09:15;8.60;99.90
19254;DHT22;9761;50.926;5.330;2023-02-01T16:11:52;8.50;99.90
19254;DHT22;9761;50.926;5.330;2023-02-01T16:14:21;8.50;99.90
19254;DHT22;9761;50.926;5.330;2023-02-01T16:16:52;8.50;99.90
19254;DHT22;9761;50.926;5.330;2023-02-01T16:19:19;8.40;99.90
19254;DHT22;9761;50.926;5.330;2023-02-01T16:21:50;8.50;99.90
19254;DHT22;9761;50.926;5.330;2023-02-01T16:24:17;8.50;99.90
19254;DHT22;9761;50.926;5.330;2023-02-01T16:26:45;8.50;99.90
19254;DHT22;9761;50.926;5.330;2023-02-01T16:29:13;8.50;99.90
19254;DHT22;9761;50.926;5.330;2023-02-01T16:34:15;8.50;99.90
19254;DHT22;9761;50.926;5.330;2023-02-01T16:36:51;8.50;99.90
19254;DHT22;9761;50.926;5.330;2023-02-01T16:39:25;8.50;99.90
19254;DHT22;9761;50.926;5.330;2023-02-01T16:41:55;8.50;99.90
19254;DHT22;9761;50.926;5.330;2023-02-01T16:44:29;8.50;99.90
19254;DHT22;9761;50.926;5.330;2023-02-01T16:46:58;8.50;99.90
19254;DHT22;9761;50.926;5.330;2023-02-01T16:49:27;8.50;99.90
19254;DHT22;9761;50.926;5.330;2023-02-01T16:57:58;8.40;99.90
19254;DHT22;9761;50.926;5.330;2023-02-01T17:00:29;8.40;99.90
19254;DHT22;9761;50.926;5.330;2023-02-01T17:03:03;8.30;99.90
19254;DHT22;9761;50.926;5.330;2023-02-01T17:05:39;8.30;99.90
19254;DHT22;9761;50.926;5.330;2023-02-01T17:10:41;8.30;99.90
19254;DHT22;9761;50.926;5.330;2023-02-01T17:13:13;8.30;99.90
19254;DHT22;9761;50.926;5.330;2023-02-01T17:15:49;8.40;99.90
19254;DHT22;9761;50.926;5.330;2023-02-01T17:18:20;8.40;99.90
19254;DHT22;9761;50.926;5.330;2023-02-01T17:20:51;8.40;99.90
19254;DHT22;9761;50.926;5.330;2023-02-01T17:23:20;8.30;99.90
19254;DHT22;9761;50.926;5.330;2023-02-01T17:25:51;8.20;99.90
19254;DHT22;9761;50.926;5.330;2023-02-01T17:28:22;8.20;99.90